sensor_id;sensor_type;location;lat;lon;timestamp;pressure;altitude;pressure_sealevel;temperature;humidity
21760;BME280;11041;50.854;20.580;2023-07-22T00:00:23;98216.81;;;16.45;100.00
21760;BME280;11041;50.854;20.580;2023-07-22T00:03:10;98217.25;;;16.47;100.00
21760;BME280;11041;50.854;20.580;2023-07-22T00:05:36;98213.00;;;16.53;100.00
21760;BME280;11041;50.854;20.580;2023-07-22T00:08:03;98193.59;;;16.53;100.00
21760;BME280;11041;50.854;20.580;2023-07-22T00:10:29;98180.88;;;16.52;100.00
21760;BME280;11041;50.854;20.580;2023-07-22T00:12:56;98187.78;;;16.61;100.00
21760;BME280;11041;50.854;20.580;2023-07-22T00:15:22;98179.47;;;16.61;100.00
21760;BME280;11041;50.854;20.580;2023-07-22T00:17:51;98173.56;;;16.63;100.00
21760;BME280;11041;50.854;20.580;2023-07-22T00:20:18;98168.34;;;16.58;100.00
21760;BME280;11041;50.854;20.580;2023-07-22T00:22:46;98160.50;;;16.64;100.00
21760;BME280;11041;50.854;20.580;2023-07-22T00:25:12;98160.06;;;16.61;100.00
21760;BME280;11041;50.854;20.580;2023-07-22T00:27:42;98142.19;;;16.59;100.00
21760;BME280;11041;50.854;20.580;2023-07-22T00:30:09;98143.41;;;16.61;100.00
21760;BME280;11041;50.854;20.580;2023-07-22T00:32:37;98137.31;;;16.52;100.00
21760;BME280;11041;50.854;20.580;2023-07-22T00:35:05;98150.78;;;16.50;100.00
21760;BME280;11041;50.854;20.580;2023-07-22T00:37:32;98141.94;;;16.45;100.00
21760;BME280;11041;50.854;20.580;2023-07-22T00:40:01;98138.81;;;16.46;100.00
21760;BME280;11041;50.854;20.580;2023-07-22T00:42:30;98134.50;;;16.49;100.00
21760;BME280;11041;50.854;20.580;2023-07-22T00:44:56;98126.16;;;16.49;100.00
21760;BME280;11041;50.854;20.580;2023-07-22T00:47:23;98134.94;;;16.51;100.00
21760;BME280;11041;50.854;20.580;2023-07-22T00:49:51;98128.94;;;16.49;100.00
21760;BME280;11041;50.854;20.580;2023-07-22T00:52:18;98128.78;;;16.38;100.00
21760;BME280;11041;50.854;20.580;2023-07-22T00:54:44;98127.91;;;16.34;100.00
21760;BME280;11041;50.854;20.580;2023-07-22T00:57:11;98132.34;;;16.38;100.00
21760;BME280;11041;50.854;20.580;2023-07-22T00:59:39;98131.59;;;16.42;100.00
21760;BME280;11041;50.854;20.580;2023-07-22T01:02:07;98136.78;;;16.43;100.00
21760;BME280;11041;50.854;20.580;2023-07-22T01:04:34;98137.25;;;16.49;100.00
21760;BME280;11041;50.854;20.580;2023-07-22T01:07:04;98130.84;;;16.45;100.00
21760;BME280;11041;50.854;20.580;2023-07-22T01:09:38;98119.03;;;16.48;100.00
21760;BME280;11041;50.854;20.580;2023-07-22T01:12:06;98109.09;;;16.47;100.00
21760;BME280;11041;50.854;20.580;2023-07-22T01:14:42;98114.34;;;16.52;100.00
21760;BME280;11041;50.854;20.580;2023-07-22T01:17:10;98115.50;;;16.51;100.00
21760;BME280;11041;50.854;20.580;2023-07-22T01:19:37;98109.97;;;16.51;100.00
21760;BME280;11041;50.854;20.580;2023-07-22T01:22:06;98111.94;;;16.50;100.00
21760;BME280;11041;50.854;20.580;2023-07-22T01:24:38;98111.44;;;16.45;100.00
21760;BME280;11041;50.854;20.580;2023-07-22T01:27:09;98115.88;;;16.49;100.00
21760;BME280;11041;50.854;20.580;2023-07-22T01:29:36;98119.44;;;16.50;100.00
21760;BME280;11041;50.854;20.580;2023-07-22T01:32:03;98123.41;;;16.49;100.00
21760;BME280;11041;50.854;20.580;2023-07-22T01:34:31;98119.03;;;16.48;100.00
21760;BME280;11041;50.854;20.580;2023-07-22T01:36:58;98130.59;;;16.53;100.00
21760;BME280;11041;50.854;20.580;2023-07-22T01:39:24;98124.69;;;16.55;100.00
21760;BME280;11041;50.854;20.580;2023-07-22T01:41:51;98122.22;;;16.50;100.00
21760;BME280;11041;50.854;20.580;2023-07-22T01:44:17;98121.09;;;16.54;100.00
21760;BME280;11041;50.854;20.580;2023-07-22T01:46:44;98110.72;;;16.48;100.00
21760;BME280;11041;50.854;20.580;2023-07-22T01:49:12;98123.75;;;16.47;100.00
21760;BME280;11041;50.854;20.580;2023-07-22T01:51:40;98126.22;;;16.29;100.00
21760;BME280;11041;50.854;20.580;2023-07-22T01:54:06;98141.13;;;16.21;100.00
21760;BME280;11041;50.854;20.580;2023-07-22T01:56:36;98143.34;;;16.12;100.00
21760;BME280;11041;50.854;20.580;2023-07-22T01:59:03;98142.75;;;16.03;100.00
21760;BME280;11041;50.854;20.580;2023-07-22T02:01:30;98140.50;;;15.89;100.00
21760;BME280;11041;50.854;20.580;2023-07-22T02:03:56;98143.91;;;15.82;100.00
21760;BME280;11041;50.854;20.580;2023-07-22T02:06:23;98150.19;;;15.79;100.00
21760;BME280;11041;50.854;20.580;2023-07-22T02:08:50;98163.16;;;15.75;100.00
21760;BME280;11041;50.854;20.580;2023-07-22T02:11:17;98160.59;;;15.66;100.00
21760;BME280;11041;50.854;20.580;2023-07-22T02:13:43;98167.13;;;15.58;100.00
21760;BME280;11041;50.854;20.580;2023-07-22T02:16:10;98171.88;;;15.58;100.00
21760;BME280;11041;50.854;20.580;2023-07-22T02:18:40;98171.72;;;15.50;100.00
21760;BME280;11041;50.854;20.580;2023-07-22T02:21:06;98166.75;;;15.40;100.00
21760;BME280;11041;50.854;20.580;2023-07-22T02:23:33;98161.22;;;15.40;100.00
21760;BME280;11041;50.854;20.580;2023-07-22T02:26:01;98156.31;;;15.33;100.00
21760;BME280;11041;50.854;20.580;2023-07-22T02:28:28;98152.25;;;15.27;100.00
21760;BME280;11041;50.854;20.580;2023-07-22T02:30:54;98157.78;;;15.27;100.00
21760;BME280;11041;50.854;20.580;2023-07-22T02:33:22;98152.06;;;15.20;100.00
21760;BME280;11041;50.854;20.580;2023-07-22T02:35:48;98159.56;;;15.20;100.00
21760;BME280;11041;50.854;20.580;2023-07-22T02:38:15;98173.22;;;15.12;100.00
21760;BME280;11041;50.854;20.580;2023-07-22T02:40:42;98176.81;;;15.13;100.00
21760;BME280;11041;50.854;20.580;2023-07-22T02:43:08;98164.06;;;15.08;100.00
21760;BME280;11041;50.854;20.580;2023-07-22T02:45:36;98163.16;;;15.04;100.00
21760;BME280;11041;50.854;20.580;2023-07-22T02:48:03;98178.34;;;15.10;100.00
21760;BME280;11041;50.854;20.580;2023-07-22T02:50:30;98184.13;;;15.05;100.00
21760;BME280;11041;50.854;20.580;2023-07-22T02:52:57;98182.97;;;15.06;100.00
21760;BME280;11041;50.854;20.580;2023-07-22T02:55:24;98192.34;;;15.18;100.00
21760;BME280;11041;50.854;20.580;2023-07-22T02:57:50;98187.50;;;15.15;100.00
21760;BME280;11041;50.854;20.580;2023-07-22T03:00:19;98203.13;;;15.23;100.00
21760;BME280;11041;50.854;20.580;2023-07-22T03:02:56;98200.00;;;15.24;100.00
21760;BME280;11041;50.854;20.580;2023-07-22T03:05:28;98200.94;;;15.32;100.00
21760;BME280;11041;50.854;20.580;2023-07-22T03:07:56;98189.47;;;15.30;100.00
21760;BME280;11041;50.854;20.580;2023-07-22T03:10:24;98188.75;;;15.33;100.00
21760;BME280;11041;50.854;20.580;2023-07-22T03:12:51;98192.41;;;15.37;100.00
21760;BME280;11041;50.854;20.580;2023-07-22T03:15:23;98183.56;;;15.31;100.00
21760;BME280;11041;50.854;20.580;2023-07-22T03:17:52;98186.41;;;15.35;100.00
21760;BME280;11041;50.854;20.580;2023-07-22T03:20:19;98179.34;;;15.38;100.00
21760;BME280;11041;50.854;20.580;2023-07-22T03:22:46;98190.59;;;15.45;100.00
21760;BME280;11041;50.854;20.580;2023-07-22T03:25:15;98191.38;;;15.45;100.00
21760;BME280;11041;50.854;20.580;2023-07-22T03:27:44;98192.91;;;15.43;100.00
21760;BME280;11041;50.854;20.580;2023-07-22T03:30:17;98198.00;;;15.41;100.00
21760;BME280;11041;50.854;20.580;2023-07-22T03:32:46;98208.56;;;15.35;100.00
21760;BME280;11041;50.854;20.580;2023-07-22T03:35:14;98210.09;;;15.32;100.00
21760;BME280;11041;50.854;20.580;2023-07-22T03:37:40;98212.31;;;15.27;100.00
21760;BME280;11041;50.854;20.580;2023-07-22T03:40:08;98220.16;;;15.25;100.00
21760;BME280;11041;50.854;20.580;2023-07-22T03:42:43;98204.28;;;15.22;100.00
21760;BME280;11041;50.854;20.580;2023-07-22T03:45:10;98218.28;;;15.29;100.00
21760;BME280;11041;50.854;20.580;2023-07-22T03:47:38;98221.97;;;15.33;100.00
21760;BME280;11041;50.854;20.580;2023-07-22T03:50:06;98223.94;;;15.32;100.00
21760;BME280;11041;50.854;20.580;2023-07-22T03:52:32;98218.91;;;15.38;100.00
21760;BME280;11041;50.854;20.580;2023-07-22T03:54:59;98214.53;;;15.37;100.00
21760;BME280;11041;50.854;20.580;2023-07-22T03:57:28;98221.03;;;15.45;100.00
21760;BME280;11041;50.854;20.580;2023-07-22T03:59:56;98229.13;;;15.53;100.00
21760;BME280;11041;50.854;20.580;2023-07-22T04:02:23;98225.22;;;15.54;100.00
21760;BME280;11041;50.854;20.580;2023-07-22T04:04:54;98228.88;;;15.59;100.00
21760;BME280;11041;50.854;20.580;2023-07-22T04:07:21;98231.44;;;15.67;100.00
21760;BME280;11041;50.854;20.580;2023-07-22T04:09:49;98241.00;;;15.70;100.00
21760;BME280;11041;50.854;20.580;2023-07-22T04:12:15;98241.09;;;15.73;100.00
21760;BME280;11041;50.854;20.580;2023-07-22T04:14:42;98233.50;;;15.70;100.00
21760;BME280;11041;50.854;20.580;2023-07-22T04:17:09;98236.25;;;15.70;100.00
21760;BME280;11041;50.854;20.580;2023-07-22T04:19:36;98242.69;;;15.74;100.00
21760;BME280;11041;50.854;20.580;2023-07-22T04:22:02;98241.72;;;15.83;100.00
21760;BME280;11041;50.854;20.580;2023-07-22T04:24:31;98247.31;;;15.86;100.00
21760;BME280;11041;50.854;20.580;2023-07-22T04:26:57;98234.41;;;15.94;100.00
21760;BME280;11041;50.854;20.580;2023-07-22T04:29:24;98247.25;;;16.02;100.00
21760;BME280;11041;50.854;20.580;2023-07-22T04:31:51;98251.78;;;16.10;100.00
21760;BME280;11041;50.854;20.580;2023-07-22T04:34:17;98247.47;;;16.13;100.00
21760;BME280;11041;50.854;20.580;2023-07-22T04:36:43;98253.09;;;16.16;100.00
21760;BME280;11041;50.854;20.580;2023-07-22T04:39:10;98261.13;;;16.22;100.00
21760;BME280;11041;50.854;20.580;2023-07-22T04:41:37;98251.94;;;16.17;100.00
21760;BME280;11041;50.854;20.580;2023-07-22T04:44:04;98253.97;;;16.21;100.00
21760;BME280;11041;50.854;20.580;2023-07-22T04:46:30;98250.97;;;16.29;100.00
21760;BME280;11041;50.854;20.580;2023-07-22T04:48:57;98253.44;;;16.34;100.00
21760;BME280;11041;50.854;20.580;2023-07-22T04:51:24;98270.59;;;16.40;100.00
21760;BME280;11041;50.854;20.580;2023-07-22T04:53:50;98255.03;;;16.35;100.00
21760;BME280;11041;50.854;20.580;2023-07-22T04:56:17;98257.47;;;16.37;100.00
21760;BME280;11041;50.854;20.580;2023-07-22T04:58:43;98268.69;;;16.44;100.00
21760;BME280;11041;50.854;20.580;2023-07-22T05:01:10;98250.81;;;16.42;100.00
21760;BME280;11041;50.854;20.580;2023-07-22T05:03:37;98259.88;;;16.38;100.00
21760;BME280;11041;50.854;20.580;2023-07-22T05:06:03;98256.66;;;16.36;100.00
21760;BME280;11041;50.854;20.580;2023-07-22T05:08:30;98262.00;;;16.45;100.00
21760;BME280;11041;50.854;20.580;2023-07-22T05:10:56;98263.09;;;16.40;100.00
21760;BME280;11041;50.854;20.580;2023-07-22T05:13:23;98269.50;;;16.45;100.00
21760;BME280;11041;50.854;20.580;2023-07-22T05:15:50;98252.66;;;16.34;100.00
21760;BME280;11041;50.854;20.580;2023-07-22T05:18:17;98267.91;;;16.44;100.00
21760;BME280;11041;50.854;20.580;2023-07-22T05:20:43;98267.59;;;16.49;100.00
21760;BME280;11041;50.854;20.580;2023-07-22T05:23:11;98271.25;;;16.53;100.00
21760;BME280;11041;50.854;20.580;2023-07-22T05:25:38;98260.97;;;16.53;100.00
21760;BME280;11041;50.854;20.580;2023-07-22T05:28:05;98261.59;;;16.66;100.00
21760;BME280;11041;50.854;20.580;2023-07-22T05:30:31;98255.56;;;16.60;100.00
21760;BME280;11041;50.854;20.580;2023-07-22T05:32:57;98259.69;;;16.70;100.00
21760;BME280;11041;50.854;20.580;2023-07-22T05:35:24;98262.78;;;16.65;100.00
21760;BME280;11041;50.854;20.580;2023-07-22T05:37:50;98260.06;;;16.49;100.00
21760;BME280;11041;50.854;20.580;2023-07-22T05:40:17;98239.16;;;16.32;100.00
21760;BME280;11041;50.854;20.580;2023-07-22T05:42:43;98244.19;;;16.27;100.00
21760;BME280;11041;50.854;20.580;2023-07-22T05:45:10;98256.38;;;16.22;100.00
21760;BME280;11041;50.854;20.580;2023-07-22T05:47:40;98262.94;;;16.33;100.00
21760;BME280;11041;50.854;20.580;2023-07-22T05:50:07;98250.25;;;16.32;100.00
21760;BME280;11041;50.854;20.580;2023-07-22T05:52:34;98262.06;;;16.49;100.00
21760;BME280;11041;50.854;20.580;2023-07-22T05:55:00;98263.94;;;16.45;100.00
21760;BME280;11041;50.854;20.580;2023-07-22T05:57:27;98267.47;;;16.42;100.00
21760;BME280;11041;50.854;20.580;2023-07-22T05:59:53;98265.63;;;16.49;100.00
21760;BME280;11041;50.854;20.580;2023-07-22T06:02:20;98266.00;;;16.48;100.00
21760;BME280;11041;50.854;20.580;2023-07-22T06:04:46;98272.72;;;16.47;100.00
21760;BME280;11041;50.854;20.580;2023-07-22T06:07:13;98271.16;;;16.49;100.00
21760;BME280;11041;50.854;20.580;2023-07-22T06:09:39;98285.56;;;16.55;100.00
21760;BME280;11041;50.854;20.580;2023-07-22T06:12:07;98287.00;;;16.49;100.00
21760;BME280;11041;50.854;20.580;2023-07-22T06:14:33;98293.06;;;16.54;100.00
21760;BME280;11041;50.854;20.580;2023-07-22T06:16:59;98300.94;;;16.52;100.00
21760;BME280;11041;50.854;20.580;2023-07-22T06:19:26;98303.94;;;16.44;100.00
21760;BME280;11041;50.854;20.580;2023-07-22T06:21:52;98297.97;;;16.42;100.00
21760;BME280;11041;50.854;20.580;2023-07-22T06:24:18;98297.38;;;16.32;100.00
21760;BME280;11041;50.854;20.580;2023-07-22T06:26:45;98302.78;;;16.25;100.00
21760;BME280;11041;50.854;20.580;2023-07-22T06:29:12;98303.50;;;16.22;100.00
21760;BME280;11041;50.854;20.580;2023-07-22T06:31:39;98309.41;;;16.21;100.00
21760;BME280;11041;50.854;20.580;2023-07-22T06:34:05;98318.59;;;16.25;100.00
21760;BME280;11041;50.854;20.580;2023-07-22T06:36:31;98320.72;;;16.31;100.00
21760;BME280;11041;50.854;20.580;2023-07-22T06:38:58;98325.69;;;16.42;100.00
21760;BME280;11041;50.854;20.580;2023-07-22T06:41:24;98307.59;;;16.48;100.00
21760;BME280;11041;50.854;20.580;2023-07-22T06:43:51;98315.69;;;16.56;100.00
21760;BME280;11041;50.854;20.580;2023-07-22T06:46:17;98304.16;;;16.54;100.00
21760;BME280;11041;50.854;20.580;2023-07-22T06:48:44;98308.53;;;16.75;100.00
21760;BME280;11041;50.854;20.580;2023-07-22T06:51:10;98318.03;;;16.93;100.00
21760;BME280;11041;50.854;20.580;2023-07-22T06:53:37;98317.78;;;17.02;100.00
21760;BME280;11041;50.854;20.580;2023-07-22T06:56:04;98323.16;;;17.14;100.00
21760;BME280;11041;50.854;20.580;2023-07-22T06:58:30;98316.88;;;17.17;100.00
21760;BME280;11041;50.854;20.580;2023-07-22T07:00:56;98311.81;;;17.23;100.00
21760;BME280;11041;50.854;20.580;2023-07-22T07:03:23;98324.41;;;17.40;98.17
21760;BME280;11041;50.854;20.580;2023-07-22T07:05:54;98326.00;;;17.41;98.30
21760;BME280;11041;50.854;20.580;2023-07-22T07:08:22;98327.53;;;17.38;99.46
21760;BME280;11041;50.854;20.580;2023-07-22T07:10:50;98330.50;;;17.49;98.19
21760;BME280;11041;50.854;20.580;2023-07-22T07:13:17;98336.91;;;17.53;97.65
21760;BME280;11041;50.854;20.580;2023-07-22T07:15:48;98335.16;;;17.41;93.17
21760;BME280;11041;50.854;20.580;2023-07-22T07:18:17;98339.13;;;17.21;93.87
21760;BME280;11041;50.854;20.580;2023-07-22T07:20:44;98362.16;;;17.21;94.43
21760;BME280;11041;50.854;20.580;2023-07-22T07:23:12;98352.97;;;17.17;94.40
21760;BME280;11041;50.854;20.580;2023-07-22T07:25:39;98359.25;;;17.14;94.11
21760;BME280;11041;50.854;20.580;2023-07-22T07:28:05;98360.91;;;17.19;96.55
21760;BME280;11041;50.854;20.580;2023-07-22T07:30:32;98354.47;;;17.15;95.87
21760;BME280;11041;50.854;20.580;2023-07-22T07:32:58;98365.44;;;17.27;96.41
21760;BME280;11041;50.854;20.580;2023-07-22T07:35:25;98380.56;;;17.30;93.93
21760;BME280;11041;50.854;20.580;2023-07-22T07:37:51;98379.06;;;17.36;88.81
21760;BME280;11041;50.854;20.580;2023-07-22T07:40:18;98362.78;;;17.34;89.47
21760;BME280;11041;50.854;20.580;2023-07-22T07:42:44;98384.31;;;17.41;87.53
21760;BME280;11041;50.854;20.580;2023-07-22T07:45:12;98388.09;;;17.52;88.89
21760;BME280;11041;50.854;20.580;2023-07-22T07:47:38;98382.69;;;17.63;90.15
21760;BME280;11041;50.854;20.580;2023-07-22T07:50:06;98386.03;;;17.72;88.47
21760;BME280;11041;50.854;20.580;2023-07-22T07:52:32;98390.91;;;17.79;87.79
21760;BME280;11041;50.854;20.580;2023-07-22T07:54:59;98384.09;;;17.73;86.28
21760;BME280;11041;50.854;20.580;2023-07-22T07:57:25;98391.91;;;17.67;86.27
21760;BME280;11041;50.854;20.580;2023-07-22T07:59:52;98395.91;;;17.70;87.53
21760;BME280;11041;50.854;20.580;2023-07-22T08:02:18;98400.16;;;17.83;89.14
21760;BME280;11041;50.854;20.580;2023-07-22T08:04:45;98408.41;;;18.02;86.68
21760;BME280;11041;50.854;20.580;2023-07-22T08:07:16;98398.31;;;17.94;84.25
21760;BME280;11041;50.854;20.580;2023-07-22T08:09:42;98407.09;;;17.96;85.53
21760;BME280;11041;50.854;20.580;2023-07-22T08:12:09;98412.84;;;18.07;84.80
21760;BME280;11041;50.854;20.580;2023-07-22T08:14:35;98416.41;;;18.07;85.79
21760;BME280;11041;50.854;20.580;2023-07-22T08:17:02;98417.50;;;18.26;85.48
21760;BME280;11041;50.854;20.580;2023-07-22T08:19:28;98433.22;;;18.41;81.99
21760;BME280;11041;50.854;20.580;2023-07-22T08:21:55;98418.97;;;18.46;81.71
21760;BME280;11041;50.854;20.580;2023-07-22T08:24:21;98423.41;;;18.51;83.27
21760;BME280;11041;50.854;20.580;2023-07-22T08:26:48;98417.59;;;18.60;81.63
21760;BME280;11041;50.854;20.580;2023-07-22T08:29:15;98437.50;;;18.62;79.96
21760;BME280;11041;50.854;20.580;2023-07-22T08:31:41;98436.03;;;18.71;80.23
21760;BME280;11041;50.854;20.580;2023-07-22T08:34:08;98434.59;;;18.81;81.30
21760;BME280;11041;50.854;20.580;2023-07-22T08:36:34;98434.78;;;18.96;78.97
21760;BME280;11041;50.854;20.580;2023-07-22T08:39:03;98436.91;;;19.09;78.52
21760;BME280;11041;50.854;20.580;2023-07-22T08:41:30;98448.53;;;19.15;75.46
21760;BME280;11041;50.854;20.580;2023-07-22T08:44:00;98449.03;;;19.24;74.47
21760;BME280;11041;50.854;20.580;2023-07-22T08:46:29;98452.19;;;19.23;74.01
21760;BME280;11041;50.854;20.580;2023-07-22T08:49:00;98452.22;;;19.26;73.84
21760;BME280;11041;50.854;20.580;2023-07-22T08:51:27;98449.88;;;19.28;72.53
21760;BME280;11041;50.854;20.580;2023-07-22T08:53:56;98451.16;;;19.34;73.44
21760;BME280;11041;50.854;20.580;2023-07-22T08:56:26;98456.78;;;19.42;72.74
21760;BME280;11041;50.854;20.580;2023-07-22T08:58:55;98465.34;;;19.59;72.44
21760;BME280;11041;50.854;20.580;2023-07-22T09:01:23;98459.13;;;19.73;67.76
21760;BME280;11041;50.854;20.580;2023-07-22T09:03:53;98458.78;;;19.78;69.78
21760;BME280;11041;50.854;20.580;2023-07-22T09:06:20;98469.28;;;19.92;68.89
21760;BME280;11041;50.854;20.580;2023-07-22T09:08:48;98457.69;;;19.90;69.62
21760;BME280;11041;50.854;20.580;2023-07-22T09:11:15;98471.25;;;19.92;69.91
21760;BME280;11041;50.854;20.580;2023-07-22T09:13:45;98459.75;;;19.97;68.04
21760;BME280;11041;50.854;20.580;2023-07-22T09:16:13;98473.41;;;20.09;67.77
21760;BME280;11041;50.854;20.580;2023-07-22T09:18:40;98473.34;;;20.02;66.40
21760;BME280;11041;50.854;20.580;2023-07-22T09:21:06;98472.13;;;20.03;64.74
21760;BME280;11041;50.854;20.580;2023-07-22T09:23:35;98471.38;;;20.06;66.93
21760;BME280;11041;50.854;20.580;2023-07-22T09:26:13;98477.53;;;20.30;62.63
21760;BME280;11041;50.854;20.580;2023-07-22T09:28:57;98471.63;;;20.38;62.08
21760;BME280;11041;50.854;20.580;2023-07-22T09:31:27;98470.38;;;20.32;61.13
21760;BME280;11041;50.854;20.580;2023-07-22T09:34:20;98470.28;;;20.18;63.98
21760;BME280;11041;50.854;20.580;2023-07-22T09:36:57;98475.78;;;20.07;64.05
21760;BME280;11041;50.854;20.580;2023-07-22T09:39:24;98482.88;;;20.01;66.45
21760;BME280;11041;50.854;20.580;2023-07-22T09:41:51;98466.63;;;20.10;66.20
21760;BME280;11041;50.854;20.580;2023-07-22T09:44:19;98486.22;;;20.17;65.04
21760;BME280;11041;50.854;20.580;2023-07-22T09:46:49;98478.63;;;20.14;64.67
21760;BME280;11041;50.854;20.580;2023-07-22T09:49:18;98494.81;;;19.98;66.30
21760;BME280;11041;50.854;20.580;2023-07-22T09:51:44;98492.22;;;19.78;66.85
21760;BME280;11041;50.854;20.580;2023-07-22T09:54:11;98485.88;;;19.78;67.93
21760;BME280;11041;50.854;20.580;2023-07-22T09:56:50;98482.72;;;19.83;67.57
21760;BME280;11041;50.854;20.580;2023-07-22T09:59:21;98491.94;;;19.87;68.67
21760;BME280;11041;50.854;20.580;2023-07-22T10:01:50;98483.91;;;19.82;67.18
21760;BME280;11041;50.854;20.580;2023-07-22T10:04:21;98494.59;;;19.73;67.17
21760;BME280;11041;50.854;20.580;2023-07-22T10:06:49;98492.59;;;19.73;67.10
21760;BME280;11041;50.854;20.580;2023-07-22T10:09:18;98482.41;;;19.54;67.73
21760;BME280;11041;50.854;20.580;2023-07-22T10:11:47;98484.31;;;19.47;67.52
21760;BME280;11041;50.854;20.580;2023-07-22T10:14:14;98485.19;;;19.54;68.23
21760;BME280;11041;50.854;20.580;2023-07-22T10:16:41;98484.22;;;19.73;68.54
21760;BME280;11041;50.854;20.580;2023-07-22T10:19:09;98478.19;;;20.09;65.12
21760;BME280;11041;50.854;20.580;2023-07-22T10:21:38;98488.31;;;20.31;65.59
21760;BME280;11041;50.854;20.580;2023-07-22T10:24:07;98484.38;;;20.39;64.16
21760;BME280;11041;50.854;20.580;2023-07-22T10:26:35;98488.84;;;20.51;65.19
21760;BME280;11041;50.854;20.580;2023-07-22T10:29:03;98473.03;;;20.62;62.88
21760;BME280;11041;50.854;20.580;2023-07-22T10:31:33;98477.09;;;20.76;62.48
21760;BME280;11041;50.854;20.580;2023-07-22T10:34:00;98483.59;;;21.01;59.95
21760;BME280;11041;50.854;20.580;2023-07-22T10:36:29;98490.50;;;21.22;58.60
21760;BME280;11041;50.854;20.580;2023-07-22T10:38:59;98483.81;;;21.41;57.19
21760;BME280;11041;50.854;20.580;2023-07-22T10:41:25;98493.44;;;21.58;57.63
21760;BME280;11041;50.854;20.580;2023-07-22T10:44:01;98492.25;;;21.66;55.96
21760;BME280;11041;50.854;20.580;2023-07-22T10:46:35;98483.06;;;21.65;55.27
21760;BME280;11041;50.854;20.580;2023-07-22T10:49:12;98499.03;;;21.58;54.54
21760;BME280;11041;50.854;20.580;2023-07-22T10:51:39;98510.50;;;21.35;55.53
21760;BME280;11041;50.854;20.580;2023-07-22T10:54:14;98500.09;;;21.32;57.11
21760;BME280;11041;50.854;20.580;2023-07-22T10:56:44;98503.75;;;21.39;56.41
21760;BME280;11041;50.854;20.580;2023-07-22T10:59:12;98498.09;;;21.32;58.25
21760;BME280;11041;50.854;20.580;2023-07-22T11:01:40;98506.09;;;21.34;57.75
21760;BME280;11041;50.854;20.580;2023-07-22T11:14:26;98497.03;;;21.69;53.95
21760;BME280;11041;50.854;20.580;2023-07-22T11:16:54;98501.06;;;21.79;52.88
21760;BME280;11041;50.854;20.580;2023-07-22T11:19:24;98498.28;;;21.93;52.12
21760;BME280;11041;50.854;20.580;2023-07-22T11:21:53;98501.91;;;21.97;52.33
21760;BME280;11041;50.854;20.580;2023-07-22T11:24:22;98503.06;;;21.78;53.97
21760;BME280;11041;50.854;20.580;2023-07-22T11:26:49;98525.81;;;21.66;54.05
21760;BME280;11041;50.854;20.580;2023-07-22T11:29:17;98511.75;;;21.41;53.86
21760;BME280;11041;50.854;20.580;2023-07-22T11:31:46;98514.13;;;21.42;54.40
21760;BME280;11041;50.854;20.580;2023-07-22T11:34:15;98513.78;;;21.51;54.59
21760;BME280;11041;50.854;20.580;2023-07-22T11:36:43;98504.25;;;21.70;53.74
21760;BME280;11041;50.854;20.580;2023-07-22T11:39:16;98502.69;;;21.90;51.84
21760;BME280;11041;50.854;20.580;2023-07-22T11:41:44;98498.72;;;22.09;53.71
21760;BME280;11041;50.854;20.580;2023-07-22T11:44:21;98507.94;;;22.42;50.84
21760;BME280;11041;50.854;20.580;2023-07-22T11:47:01;98513.09;;;22.65;49.92
21760;BME280;11041;50.854;20.580;2023-07-22T11:49:34;98503.94;;;22.54;49.56
21760;BME280;11041;50.854;20.580;2023-07-22T11:52:09;98501.50;;;22.63;48.56
21760;BME280;11041;50.854;20.580;2023-07-22T11:54:39;98496.69;;;22.78;51.07
21760;BME280;11041;50.854;20.580;2023-07-22T11:57:18;98505.06;;;23.03;48.86
21760;BME280;11041;50.854;20.580;2023-07-22T11:59:51;98503.88;;;23.04;49.73
21760;BME280;11041;50.854;20.580;2023-07-22T12:02:20;98505.44;;;23.09;47.02
21760;BME280;11041;50.854;20.580;2023-07-22T12:05:02;98498.19;;;23.18;46.49
21760;BME280;11041;50.854;20.580;2023-07-22T12:07:37;98487.78;;;23.26;46.74
21760;BME280;11041;50.854;20.580;2023-07-22T12:10:08;98508.53;;;23.39;47.12
21760;BME280;11041;50.854;20.580;2023-07-22T12:12:39;98510.84;;;23.63;46.17
21760;BME280;11041;50.854;20.580;2023-07-22T12:15:17;98510.31;;;23.89;42.59
21760;BME280;11041;50.854;20.580;2023-07-22T12:17:48;98503.38;;;24.08;40.60
21760;BME280;11041;50.854;20.580;2023-07-22T12:20:16;98513.84;;;24.00;41.42
21760;BME280;11041;50.854;20.580;2023-07-22T12:22:43;98502.22;;;23.98;42.67
21760;BME280;11041;50.854;20.580;2023-07-22T12:25:10;98496.53;;;24.09;43.30
21760;BME280;11041;50.854;20.580;2023-07-22T12:27:37;98490.47;;;24.14;42.63
21760;BME280;11041;50.854;20.580;2023-07-22T12:30:05;98495.91;;;24.39;41.66
21760;BME280;11041;50.854;20.580;2023-07-22T12:32:33;98495.06;;;24.42;41.26
21760;BME280;11041;50.854;20.580;2023-07-22T12:35:00;98491.47;;;24.38;41.24
21760;BME280;11041;50.854;20.580;2023-07-22T12:37:26;98498.03;;;24.24;43.26
21760;BME280;11041;50.854;20.580;2023-07-22T12:39:54;98500.56;;;24.08;41.74
21760;BME280;11041;50.854;20.580;2023-07-22T12:42:21;98507.84;;;23.98;41.98
21760;BME280;11041;50.854;20.580;2023-07-22T12:44:47;98505.97;;;23.74;43.60
21760;BME280;11041;50.854;20.580;2023-07-22T12:47:13;98499.66;;;23.55;43.51
21760;BME280;11041;50.854;20.580;2023-07-22T12:49:40;98498.09;;;23.40;43.83
21760;BME280;11041;50.854;20.580;2023-07-22T12:52:06;98506.19;;;23.31;44.37
21760;BME280;11041;50.854;20.580;2023-07-22T12:54:36;98499.84;;;23.12;45.62
21760;BME280;11041;50.854;20.580;2023-07-22T12:57:02;98506.69;;;23.04;45.52
21760;BME280;11041;50.854;20.580;2023-07-22T12:59:29;98505.44;;;22.94;45.70